sensor_id;sensor_type;location;lat;lon;timestamp;temperature;humidity
1453;DHT22;720;47.738;7.998;2023-05-07T00:01:08;11.90;99.90
1453;DHT22;720;47.738;7.998;2023-05-07T00:03:33;12.00;99.90
1453;DHT22;720;47.738;7.998;2023-05-07T00:05:59;11.90;99.90
1453;DHT22;720;47.738;7.998;2023-05-07T00:08:25;12.00;99.90
1453;DHT22;720;47.738;7.998;2023-05-07T00:10:50;12.00;99.90
1453;DHT22;720;47.738;7.998;2023-05-07T00:13:16;12.10;99.90
1453;DHT22;720;47.738;7.998;2023-05-07T00:15:42;12.10;99.90
1453;DHT22;720;47.738;7.998;2023-05-07T00:18:07;12.10;99.90
1453;DHT22;720;47.738;7.998;2023-05-07T00:20:33;12.20;99.90
1453;DHT22;720;47.738;7.998;2023-05-07T00:22:59;12.20;99.90
1453;DHT22;720;47.738;7.998;2023-05-07T00:25:24;12.30;99.90
1453;DHT22;720;47.738;7.998;2023-05-07T00:27:50;12.20;99.90
1453;DHT22;720;47.738;7.998;2023-05-07T00:30:15;12.20;99.90
1453;DHT22;720;47.738;7.998;2023-05-07T00:32:41;12.10;99.90
1453;DHT22;720;47.738;7.998;2023-05-07T00:35:07;12.20;99.90
1453;DHT22;720;47.738;7.998;2023-05-07T00:37:33;12.00;99.90
1453;DHT22;720;47.738;7.998;2023-05-07T00:39:58;12.00;99.90
1453;DHT22;720;47.738;7.998;2023-05-07T00:42:24;12.00;99.90
1453;DHT22;720;47.738;7.998;2023-05-07T00:44:50;12.00;99.90
1453;DHT22;720;47.738;7.998;2023-05-07T00:47:16;12.10;99.90
1453;DHT22;720;47.738;7.998;2023-05-07T00:49:43;12.20;99.90
1453;DHT22;720;47.738;7.998;2023-05-07T00:52:14;12.20;99.90
1453;DHT22;720;47.738;7.998;2023-05-07T00:54:42;12.20;99.90
1453;DHT22;720;47.738;7.998;2023-05-07T00:57:09;12.10;99.90
1453;DHT22;720;47.738;7.998;2023-05-07T00:59:35;12.20;99.90
1453;DHT22;720;47.738;7.998;2023-05-07T01:02:00;12.30;99.90
1453;DHT22;720;47.738;7.998;2023-05-07T01:04:26;12.20;99.90
1453;DHT22;720;47.738;7.998;2023-05-07T01:06:53;12.20;99.90
1453;DHT22;720;47.738;7.998;2023-05-07T01:09:21;12.10;99.90
1453;DHT22;720;47.738;7.998;2023-05-07T01:11:49;12.00;99.90
1453;DHT22;720;47.738;7.998;2023-05-07T01:14:15;12.00;99.90
1453;DHT22;720;47.738;7.998;2023-05-07T01:16:40;12.00;99.90
1453;DHT22;720;47.738;7.998;2023-05-07T01:19:08;12.10;99.90
1453;DHT22;720;47.738;7.998;2023-05-07T01:21:34;12.10;99.90
1453;DHT22;720;47.738;7.998;2023-05-07T01:24:03;12.00;99.90
1453;DHT22;720;47.738;7.998;2023-05-07T01:26:29;12.10;99.90
1453;DHT22;720;47.738;7.998;2023-05-07T01:28:55;12.10;99.90
1453;DHT22;720;47.738;7.998;2023-05-07T01:31:20;12.10;99.90
1453;DHT22;720;47.738;7.998;2023-05-07T01:33:48;12.20;99.90
1453;DHT22;720;47.738;7.998;2023-05-07T01:36:15;12.10;99.90
1453;DHT22;720;47.738;7.998;2023-05-07T01:38:43;12.10;99.90
1453;DHT22;720;47.738;7.998;2023-05-07T01:41:09;12.10;99.90
1453;DHT22;720;47.738;7.998;2023-05-07T01:43:35;12.00;99.90
1453;DHT22;720;47.738;7.998;2023-05-07T01:46:01;11.90;99.90
1453;DHT22;720;47.738;7.998;2023-05-07T01:48:28;11.80;99.90
1453;DHT22;720;47.738;7.998;2023-05-07T01:50:55;11.70;99.90
1453;DHT22;720;47.738;7.998;2023-05-07T01:53:20;11.60;99.90
1453;DHT22;720;47.738;7.998;2023-05-07T01:55:46;11.60;99.90
1453;DHT22;720;47.738;7.998;2023-05-07T01:58:12;11.60;99.90
1453;DHT22;720;47.738;7.998;2023-05-07T02:00:37;11.70;99.90
1453;DHT22;720;47.738;7.998;2023-05-07T02:03:03;11.70;99.90
1453;DHT22;720;47.738;7.998;2023-05-07T02:05:28;11.70;99.90
1453;DHT22;720;47.738;7.998;2023-05-07T02:07:54;11.80;99.90
1453;DHT22;720;47.738;7.998;2023-05-07T02:10:20;11.70;99.90
1453;DHT22;720;47.738;7.998;2023-05-07T02:12:45;11.60;99.90
1453;DHT22;720;47.738;7.998;2023-05-07T02:15:11;11.50;99.90
1453;DHT22;720;47.738;7.998;2023-05-07T02:17:57;11.50;99.90
1453;DHT22;720;47.738;7.998;2023-05-07T02:20:24;11.40;99.90
1453;DHT22;720;47.738;7.998;2023-05-07T02:22:49;11.40;99.90
1453;DHT22;720;47.738;7.998;2023-05-07T02:25:15;11.50;99.90
1453;DHT22;720;47.738;7.998;2023-05-07T02:27:41;11.50;99.90
1453;DHT22;720;47.738;7.998;2023-05-07T02:30:07;11.50;99.90
1453;DHT22;720;47.738;7.998;2023-05-07T02:32:32;11.60;99.90
1453;DHT22;720;47.738;7.998;2023-05-07T02:34:58;11.30;99.90
1453;DHT22;720;47.738;7.998;2023-05-07T02:37:24;11.40;99.90
1453;DHT22;720;47.738;7.998;2023-05-07T02:39:49;11.30;99.90
1453;DHT22;720;47.738;7.998;2023-05-07T02:42:15;11.40;99.90
1453;DHT22;720;47.738;7.998;2023-05-07T02:44:40;11.50;99.90
1453;DHT22;720;47.738;7.998;2023-05-07T02:47:06;11.50;99.90
1453;DHT22;720;47.738;7.998;2023-05-07T02:49:33;11.40;99.90
1453;DHT22;720;47.738;7.998;2023-05-07T02:51:59;11.40;99.90
1453;DHT22;720;47.738;7.998;2023-05-07T02:54:25;11.30;99.90
1453;DHT22;720;47.738;7.998;2023-05-07T02:56:50;11.30;99.90
1453;DHT22;720;47.738;7.998;2023-05-07T02:59:16;11.20;99.90
1453;DHT22;720;47.738;7.998;2023-05-07T03:01:42;11.10;99.90
1453;DHT22;720;47.738;7.998;2023-05-07T03:04:09;11.10;99.90
1453;DHT22;720;47.738;7.998;2023-05-07T03:06:36;11.10;99.90
1453;DHT22;720;47.738;7.998;2023-05-07T03:09:01;11.20;99.90
1453;DHT22;720;47.738;7.998;2023-05-07T03:11:27;11.20;99.90
1453;DHT22;720;47.738;7.998;2023-05-07T03:13:53;11.20;99.90
1453;DHT22;720;47.738;7.998;2023-05-07T03:16:19;11.20;99.90
1453;DHT22;720;47.738;7.998;2023-05-07T03:18:44;11.30;99.90
1453;DHT22;720;47.738;7.998;2023-05-07T03:21:10;11.30;99.90
1453;DHT22;720;47.738;7.998;2023-05-07T03:23:35;11.30;99.90
1453;DHT22;720;47.738;7.998;2023-05-07T03:26:01;11.30;99.90
1453;DHT22;720;47.738;7.998;2023-05-07T03:28:27;11.30;99.90
1453;DHT22;720;47.738;7.998;2023-05-07T03:30:52;11.30;99.90
1453;DHT22;720;47.738;7.998;2023-05-07T03:33:18;11.40;99.90
1453;DHT22;720;47.738;7.998;2023-05-07T03:35:43;11.40;99.90
1453;DHT22;720;47.738;7.998;2023-05-07T03:38:09;11.30;99.90
1453;DHT22;720;47.738;7.998;2023-05-07T03:40:35;11.30;99.90
1453;DHT22;720;47.738;7.998;2023-05-07T03:43:00;11.20;99.90
1453;DHT22;720;47.738;7.998;2023-05-07T03:45:26;11.20;99.90
1453;DHT22;720;47.738;7.998;2023-05-07T03:47:52;11.40;99.90
1453;DHT22;720;47.738;7.998;2023-05-07T03:50:17;11.50;99.90
1453;DHT22;720;47.738;7.998;2023-05-07T03:52:43;11.50;99.90
1453;DHT22;720;47.738;7.998;2023-05-07T03:55:09;11.50;99.90
1453;DHT22;720;47.738;7.998;2023-05-07T03:57:34;11.50;99.90
1453;DHT22;720;47.738;7.998;2023-05-07T04:00:00;11.50;99.90
1453;DHT22;720;47.738;7.998;2023-05-07T04:02:26;11.40;99.90
1453;DHT22;720;47.738;7.998;2023-05-07T04:04:52;11.50;99.90
1453;DHT22;720;47.738;7.998;2023-05-07T04:07:17;11.50;99.90
1453;DHT22;720;47.738;7.998;2023-05-07T04:09:43;11.50;99.90
1453;DHT22;720;47.738;7.998;2023-05-07T04:12:08;11.50;99.90
1453;DHT22;720;47.738;7.998;2023-05-07T04:14:34;11.40;99.90
1453;DHT22;720;47.738;7.998;2023-05-07T04:17:00;11.50;99.90
1453;DHT22;720;47.738;7.998;2023-05-07T04:19:26;11.50;99.90
1453;DHT22;720;47.738;7.998;2023-05-07T04:21:51;11.50;99.90
1453;DHT22;720;47.738;7.998;2023-05-07T04:24:17;11.50;99.90
1453;DHT22;720;47.738;7.998;2023-05-07T04:26:43;11.60;99.90
1453;DHT22;720;47.738;7.998;2023-05-07T04:29:08;11.70;99.90
1453;DHT22;720;47.738;7.998;2023-05-07T04:31:34;11.90;99.90
1453;DHT22;720;47.738;7.998;2023-05-07T04:34:00;12.00;99.90
1453;DHT22;720;47.738;7.998;2023-05-07T04:36:26;12.20;99.90
1453;DHT22;720;47.738;7.998;2023-05-07T04:38:53;12.30;99.90
1453;DHT22;720;47.738;7.998;2023-05-07T04:41:19;12.20;99.90
1453;DHT22;720;47.738;7.998;2023-05-07T04:43:45;12.30;99.90
1453;DHT22;720;47.738;7.998;2023-05-07T04:46:11;12.30;99.90
1453;DHT22;720;47.738;7.998;2023-05-07T04:48:37;12.40;99.90
1453;DHT22;720;47.738;7.998;2023-05-07T04:51:02;12.40;99.90
1453;DHT22;720;47.738;7.998;2023-05-07T04:53:28;12.50;99.90
1453;DHT22;720;47.738;7.998;2023-05-07T04:55:57;12.80;99.90
1453;DHT22;720;47.738;7.998;2023-05-07T04:58:23;13.40;99.90
1453;DHT22;720;47.738;7.998;2023-05-07T05:00:49;14.20;99.90
1453;DHT22;720;47.738;7.998;2023-05-07T05:03:15;15.00;99.90
1453;DHT22;720;47.738;7.998;2023-05-07T05:05:40;15.80;99.90
1453;DHT22;720;47.738;7.998;2023-05-07T05:08:06;16.70;99.90
1453;DHT22;720;47.738;7.998;2023-05-07T05:10:32;17.40;99.70
1453;DHT22;720;47.738;7.998;2023-05-07T05:12:57;17.60;97.80
1453;DHT22;720;47.738;7.998;2023-05-07T05:15:23;17.50;96.60
1453;DHT22;720;47.738;7.998;2023-05-07T05:17:48;17.30;96.10
1453;DHT22;720;47.738;7.998;2023-05-07T05:20:14;17.30;95.80
1453;DHT22;720;47.738;7.998;2023-05-07T05:22:41;17.30;96.20
1453;DHT22;720;47.738;7.998;2023-05-07T05:25:07;17.80;99.90
1453;DHT22;720;47.738;7.998;2023-05-07T05:27:33;17.80;96.10
1453;DHT22;720;47.738;7.998;2023-05-07T05:30:02;18.10;95.60
1453;DHT22;720;47.738;7.998;2023-05-07T05:32:28;18.30;94.60
1453;DHT22;720;47.738;7.998;2023-05-07T05:34:54;18.50;94.30
1453;DHT22;720;47.738;7.998;2023-05-07T05:37:19;18.60;94.10
1453;DHT22;720;47.738;7.998;2023-05-07T05:39:45;18.70;94.10
1453;DHT22;720;47.738;7.998;2023-05-07T05:42:10;18.70;93.80
1453;DHT22;720;47.738;7.998;2023-05-07T05:44:36;18.70;93.80
1453;DHT22;720;47.738;7.998;2023-05-07T05:47:02;19.10;94.00
1453;DHT22;720;47.738;7.998;2023-05-07T05:49:28;19.60;93.10
1453;DHT22;720;47.738;7.998;2023-05-07T05:51:54;20.10;92.40
1453;DHT22;720;47.738;7.998;2023-05-07T05:54:21;20.60;91.50
1453;DHT22;720;47.738;7.998;2023-05-07T05:56:46;21.10;90.20
1453;DHT22;720;47.738;7.998;2023-05-07T05:59:12;21.50;89.60
1453;DHT22;720;47.738;7.998;2023-05-07T06:01:38;22.00;87.70
1453;DHT22;720;47.738;7.998;2023-05-07T06:04:04;22.20;85.70
1453;DHT22;720;47.738;7.998;2023-05-07T06:06:30;22.30;85.20
1453;DHT22;720;47.738;7.998;2023-05-07T06:08:57;23.00;85.30
1453;DHT22;720;47.738;7.998;2023-05-07T06:11:23;24.50;82.30
1453;DHT22;720;47.738;7.998;2023-05-07T06:13:48;26.20;75.90
1453;DHT22;720;47.738;7.998;2023-05-07T06:16:14;27.50;69.30
1453;DHT22;720;47.738;7.998;2023-05-07T06:18:40;28.60;64.80
1453;DHT22;720;47.738;7.998;2023-05-07T06:21:06;29.00;59.70
1453;DHT22;720;47.738;7.998;2023-05-07T06:23:32;28.70;57.90
1453;DHT22;720;47.738;7.998;2023-05-07T06:25:57;27.60;58.10
1453;DHT22;720;47.738;7.998;2023-05-07T06:28:23;26.40;60.30
1453;DHT22;720;47.738;7.998;2023-05-07T06:30:48;25.30;63.90
1453;DHT22;720;47.738;7.998;2023-05-07T06:33:15;24.50;66.90
1453;DHT22;720;47.738;7.998;2023-05-07T06:35:41;23.80;69.80
1453;DHT22;720;47.738;7.998;2023-05-07T06:38:06;23.20;72.30
1453;DHT22;720;47.738;7.998;2023-05-07T06:40:32;22.70;73.60
1453;DHT22;720;47.738;7.998;2023-05-07T06:42:58;22.20;76.10
1453;DHT22;720;47.738;7.998;2023-05-07T06:45:23;22.00;76.80
1453;DHT22;720;47.738;7.998;2023-05-07T06:47:50;22.10;78.40
1453;DHT22;720;47.738;7.998;2023-05-07T06:50:16;22.60;77.60
1453;DHT22;720;47.738;7.998;2023-05-07T06:52:42;23.10;75.60
1453;DHT22;720;47.738;7.998;2023-05-07T06:55:08;23.30;88.10
1453;DHT22;720;47.738;7.998;2023-05-07T06:57:34;23.30;73.40
1453;DHT22;720;47.738;7.998;2023-05-07T07:00:00;22.80;73.10
1453;DHT22;720;47.738;7.998;2023-05-07T07:02:26;22.00;73.50
1453;DHT22;720;47.738;7.998;2023-05-07T07:04:51;21.40;75.50
1453;DHT22;720;47.738;7.998;2023-05-07T07:07:17;20.50;77.70
1453;DHT22;720;47.738;7.998;2023-05-07T07:09:42;20.00;80.90
1453;DHT22;720;47.738;7.998;2023-05-07T07:12:08;19.50;82.30
1453;DHT22;720;47.738;7.998;2023-05-07T07:14:34;19.40;83.60
1453;DHT22;720;47.738;7.998;2023-05-07T07:16:59;19.50;85.80
1453;DHT22;720;47.738;7.998;2023-05-07T07:19:26;19.70;84.80
1453;DHT22;720;47.738;7.998;2023-05-07T07:21:51;20.00;83.90
1453;DHT22;720;47.738;7.998;2023-05-07T07:24:17;20.90;84.30
1453;DHT22;720;47.738;7.998;2023-05-07T07:26:46;22.40;80.70
1453;DHT22;720;47.738;7.998;2023-05-07T07:29:12;23.80;77.00
1453;DHT22;720;47.738;7.998;2023-05-07T07:31:38;24.90;72.60
1453;DHT22;720;47.738;7.998;2023-05-07T07:34:03;26.30;68.30
1453;DHT22;720;47.738;7.998;2023-05-07T07:36:29;28.00;65.80
1453;DHT22;720;47.738;7.998;2023-05-07T07:38:55;29.50;59.70
1453;DHT22;720;47.738;7.998;2023-05-07T07:41:21;30.60;54.90
1453;DHT22;720;47.738;7.998;2023-05-07T07:43:46;31.50;52.30
1453;DHT22;720;47.738;7.998;2023-05-07T07:46:12;32.10;50.90
1453;DHT22;720;47.738;7.998;2023-05-07T07:48:38;31.70;49.90
1453;DHT22;720;47.738;7.998;2023-05-07T07:51:04;31.70;50.30
1453;DHT22;720;47.738;7.998;2023-05-07T07:53:30;32.00;49.80
1453;DHT22;720;47.738;7.998;2023-05-07T07:55:55;32.10;48.20
1453;DHT22;720;47.738;7.998;2023-05-07T07:58:21;31.60;48.70
1453;DHT22;720;47.738;7.998;2023-05-07T08:00:47;31.20;48.60
1453;DHT22;720;47.738;7.998;2023-05-07T08:03:14;30.40;49.20
1453;DHT22;720;47.738;7.998;2023-05-07T08:05:42;29.90;50.10
1453;DHT22;720;47.738;7.998;2023-05-07T08:08:08;29.30;50.60
1453;DHT22;720;47.738;7.998;2023-05-07T08:10:33;29.10;51.80
1453;DHT22;720;47.738;7.998;2023-05-07T08:13:00;28.90;51.20
1453;DHT22;720;47.738;7.998;2023-05-07T08:15:26;28.90;51.50
1453;DHT22;720;47.738;7.998;2023-05-07T08:17:51;28.60;51.80
1453;DHT22;720;47.738;7.998;2023-05-07T08:20:17;28.20;52.50
1453;DHT22;720;47.738;7.998;2023-05-07T08:22:43;28.30;52.80
1453;DHT22;720;47.738;7.998;2023-05-07T08:25:09;28.40;52.50
1453;DHT22;720;47.738;7.998;2023-05-07T08:27:34;28.50;52.50
1453;DHT22;720;47.738;7.998;2023-05-07T08:30:00;28.30;52.80
1453;DHT22;720;47.738;7.998;2023-05-07T08:32:26;28.50;53.50
1453;DHT22;720;47.738;7.998;2023-05-07T08:34:51;28.80;52.90
1453;DHT22;720;47.738;7.998;2023-05-07T08:37:17;28.40;52.30
1453;DHT22;720;47.738;7.998;2023-05-07T08:39:43;28.20;53.10
1453;DHT22;720;47.738;7.998;2023-05-07T08:42:09;27.50;53.60
1453;DHT22;720;47.738;7.998;2023-05-07T08:44:38;26.70;55.60
1453;DHT22;720;47.738;7.998;2023-05-07T08:47:06;26.40;56.70
1453;DHT22;720;47.738;7.998;2023-05-07T08:49:33;26.10;56.50
1453;DHT22;720;47.738;7.998;2023-05-07T08:51:59;25.90;57.70
1453;DHT22;720;47.738;7.998;2023-05-07T08:54:26;25.90;57.70
1453;DHT22;720;47.738;7.998;2023-05-07T08:56:52;25.80;57.50
1453;DHT22;720;47.738;7.998;2023-05-07T08:59:18;25.90;57.70
1453;DHT22;720;47.738;7.998;2023-05-07T09:01:44;25.70;57.80
1453;DHT22;720;47.738;7.998;2023-05-07T09:04:10;25.50;58.40
1453;DHT22;720;47.738;7.998;2023-05-07T09:06:35;25.20;58.90
1453;DHT22;720;47.738;7.998;2023-05-07T09:09:03;24.60;59.90
1453;DHT22;720;47.738;7.998;2023-05-07T09:11:30;24.10;61.20
1453;DHT22;720;47.738;7.998;2023-05-07T09:13:58;23.70;62.40
1453;DHT22;720;47.738;7.998;2023-05-07T09:16:28;23.20;63.70
1453;DHT22;720;47.738;7.998;2023-05-07T09:18:54;22.80;64.90
1453;DHT22;720;47.738;7.998;2023-05-07T09:21:20;22.30;66.80
1453;DHT22;720;47.738;7.998;2023-05-07T09:23:51;22.20;67.40
1453;DHT22;720;47.738;7.998;2023-05-07T09:26:18;22.60;66.90
1453;DHT22;720;47.738;7.998;2023-05-07T09:28:44;22.90;66.60
1453;DHT22;720;47.738;7.998;2023-05-07T09:31:11;23.20;65.40
1453;DHT22;720;47.738;7.998;2023-05-07T09:33:37;23.00;65.20
1453;DHT22;720;47.738;7.998;2023-05-07T09:36:08;22.70;65.80
1453;DHT22;720;47.738;7.998;2023-05-07T09:38:35;22.20;67.30
1453;DHT22;720;47.738;7.998;2023-05-07T09:41:06;21.60;68.90
1453;DHT22;720;47.738;7.998;2023-05-07T09:43:33;21.10;70.60
1453;DHT22;720;47.738;7.998;2023-05-07T09:46:11;20.80;71.80
1453;DHT22;720;47.738;7.998;2023-05-07T09:48:38;20.80;73.90
1453;DHT22;720;47.738;7.998;2023-05-07T09:53:46;21.40;72.70
1453;DHT22;720;47.738;7.998;2023-05-07T09:56:14;21.90;70.60
1453;DHT22;720;47.738;7.998;2023-05-07T09:58:42;22.30;71.10
1453;DHT22;720;47.738;7.998;2023-05-07T10:01:10;23.00;71.80
1453;DHT22;720;47.738;7.998;2023-05-07T10:03:37;22.70;67.90
1453;DHT22;720;47.738;7.998;2023-05-07T10:06:05;22.60;70.60
1453;DHT22;720;47.738;7.998;2023-05-07T10:08:31;22.50;70.90
1453;DHT22;720;47.738;7.998;2023-05-07T10:10:57;22.70;71.50
1453;DHT22;720;47.738;7.998;2023-05-07T10:13:23;23.20;69.60
1453;DHT22;720;47.738;7.998;2023-05-07T10:15:50;23.60;68.10
1453;DHT22;720;47.738;7.998;2023-05-07T10:18:16;23.90;67.90
1453;DHT22;720;47.738;7.998;2023-05-07T10:20:44;24.10;66.50
1453;DHT22;720;47.738;7.998;2023-05-07T10:23:13;23.70;66.10
1453;DHT22;720;47.738;7.998;2023-05-07T10:25:40;23.40;68.50
1453;DHT22;720;47.738;7.998;2023-05-07T10:28:08;23.20;68.80
1453;DHT22;720;47.738;7.998;2023-05-07T10:33:15;23.10;68.60
1453;DHT22;720;47.738;7.998;2023-05-07T10:35:44;23.40;68.90
1453;DHT22;720;47.738;7.998;2023-05-07T10:38:12;23.80;65.50
1453;DHT22;720;47.738;7.998;2023-05-07T10:40:38;23.90;66.30
1453;DHT22;720;47.738;7.998;2023-05-07T10:43:05;24.20;67.90
1453;DHT22;720;47.738;7.998;2023-05-07T10:45:32;24.10;64.70
1453;DHT22;720;47.738;7.998;2023-05-07T10:48:16;23.80;65.40
1453;DHT22;720;47.738;7.998;2023-05-07T10:50:44;23.80;65.80
1453;DHT22;720;47.738;7.998;2023-05-07T10:55:47;23.80;69.20
1453;DHT22;720;47.738;7.998;2023-05-07T10:58:28;23.30;65.40
1453;DHT22;720;47.738;7.998;2023-05-07T11:01:00;23.10;66.30
1453;DHT22;720;47.738;7.998;2023-05-07T11:03:26;23.10;67.90
1453;DHT22;720;47.738;7.998;2023-05-07T11:06:14;22.80;69.10
1453;DHT22;720;47.738;7.998;2023-05-07T11:08:53;22.90;67.30
1453;DHT22;720;47.738;7.998;2023-05-07T11:11:19;23.00;66.70
1453;DHT22;720;47.738;7.998;2023-05-07T11:13:47;23.20;68.50
1453;DHT22;720;47.738;7.998;2023-05-07T11:16:20;23.50;67.70
1453;DHT22;720;47.738;7.998;2023-05-07T11:18:53;23.50;68.00
1453;DHT22;720;47.738;7.998;2023-05-07T11:21:39;23.30;66.70
1453;DHT22;720;47.738;7.998;2023-05-07T11:24:09;23.40;67.30
1453;DHT22;720;47.738;7.998;2023-05-07T11:26:49;23.00;65.50
1453;DHT22;720;47.738;7.998;2023-05-07T11:29:20;22.70;66.00
1453;DHT22;720;47.738;7.998;2023-05-07T11:31:54;22.30;67.60
1453;DHT22;720;47.738;7.998;2023-05-07T11:34:24;21.90;67.10
1453;DHT22;720;47.738;7.998;2023-05-07T11:36:50;21.50;70.10
1453;DHT22;720;47.738;7.998;2023-05-07T11:39:29;21.10;74.00
1453;DHT22;720;47.738;7.998;2023-05-07T11:41:55;20.90;75.80
1453;DHT22;720;47.738;7.998;2023-05-07T11:44:20;20.60;76.50
1453;DHT22;720;47.738;7.998;2023-05-07T11:46:46;20.30;78.70
1453;DHT22;720;47.738;7.998;2023-05-07T11:49:12;19.90;81.60
1453;DHT22;720;47.738;7.998;2023-05-07T11:51:39;19.80;84.40
1453;DHT22;720;47.738;7.998;2023-05-07T11:54:05;19.70;86.70
1453;DHT22;720;47.738;7.998;2023-05-07T11:56:34;19.60;87.60
1453;DHT22;720;47.738;7.998;2023-05-07T11:59:00;19.60;88.70
1453;DHT22;720;47.738;7.998;2023-05-07T12:01:26;19.80;89.20
1453;DHT22;720;47.738;7.998;2023-05-07T12:03:52;19.80;90.00
1453;DHT22;720;47.738;7.998;2023-05-07T12:06:18;20.10;89.20
1453;DHT22;720;47.738;7.998;2023-05-07T12:08:44;20.40;89.00
1453;DHT22;720;47.738;7.998;2023-05-07T12:11:22;20.60;89.00
1453;DHT22;720;47.738;7.998;2023-05-07T12:13:48;20.60;87.30
1453;DHT22;720;47.738;7.998;2023-05-07T12:16:14;20.60;87.90
1453;DHT22;720;47.738;7.998;2023-05-07T12:18:40;20.60;86.70
1453;DHT22;720;47.738;7.998;2023-05-07T12:21:06;20.70;86.60
1453;DHT22;720;47.738;7.998;2023-05-07T12:23:34;20.80;86.90
1453;DHT22;720;47.738;7.998;2023-05-07T12:26:01;20.90;83.40
1453;DHT22;720;47.738;7.998;2023-05-07T12:28:26;20.90;84.20
1453;DHT22;720;47.738;7.998;2023-05-07T12:30:52;20.70;84.20
1453;DHT22;720;47.738;7.998;2023-05-07T12:33:23;20.60;83.80
1453;DHT22;720;47.738;7.998;2023-05-07T12:35:50;20.50;84.60
1453;DHT22;720;47.738;7.998;2023-05-07T12:38:17;20.40;82.80
1453;DHT22;720;47.738;7.998;2023-05-07T12:40:44;20.30;83.10
1453;DHT22;720;47.738;7.998;2023-05-07T12:43:20;20.10;83.70
1453;DHT22;720;47.738;7.998;2023-05-07T12:45:48;19.70;86.60
1453;DHT22;720;47.738;7.998;2023-05-07T12:48:14;19.40;89.80
1453;DHT22;720;47.738;7.998;2023-05-07T12:50:40;19.10;93.00
1453;DHT22;720;47.738;7.998;2023-05-07T12:53:07;18.60;97.10
1453;DHT22;720;47.738;7.998;2023-05-07T12:55:47;18.00;99.90
1453;DHT22;720;47.738;7.998;2023-05-07T12:58:19;17.70;99.90
1453;DHT22;720;47.738;7.998;2023-05-07T13:00:48;17.70;99.90
1453;DHT22;720;47.738;7.998;2023-05-07T13:03:33;17.60;99.90
1453;DHT22;720;47.738;7.998;2023-05-07T13:06:05;17.40;99.90
1453;DHT22;720;47.738;7.998;2023-05-07T13:08:33;17.40;99.90
1453;DHT22;720;47.738;7.998;2023-05-07T13:11:00;17.30;99.90
1453;DHT22;720;47.738;7.998;2023-05-07T13:13:29;17.20;99.90
1453;DHT22;720;47.738;7.998;2023-05-07T13:15:55;17.20;99.90
1453;DHT22;720;47.738;7.998;2023-05-07T13:18:21;17.20;99.90
1453;DHT22;720;47.738;7.998;2023-05-07T13:20:46;17.20;99.90
1453;DHT22;720;47.738;7.998;2023-05-07T13:23:12;17.20;99.90
1453;DHT22;720;47.738;7.998;2023-05-07T13:25:38;17.20;99.90
1453;DHT22;720;47.738;7.998;2023-05-07T13:28:03;17.30;99.90
1453;DHT22;720;47.738;7.998;2023-05-07T13:30:30;17.30;99.90
1453;DHT22;720;47.738;7.998;2023-05-07T13:32:56;17.30;99.90
1453;DHT22;720;47.738;7.998;2023-05-07T13:35:21;17.40;99.90
1453;DHT22;720;47.738;7.998;2023-05-07T13:37:47;17.30;99.90
1453;DHT22;720;47.738;7.998;2023-05-07T13:40:17;17.40;99.90
1453;DHT22;720;47.738;7.998;2023-05-07T13:42:44;17.50;99.90
1453;DHT22;720;47.738;7.998;2023-05-07T13:45:09;17.70;99.90
1453;DHT22;720;47.738;7.998;2023-05-07T13:47:35;17.90;99.90
1453;DHT22;720;47.738;7.998;2023-05-07T13:50:01;18.20;99.90
1453;DHT22;720;47.738;7.998;2023-05-07T13:52:26;18.60;99.90
1453;DHT22;720;47.738;7.998;2023-05-07T13:54:52;18.80;99.90
1453;DHT22;720;47.738;7.998;2023-05-07T13:57:18;19.10;99.90
1453;DHT22;720;47.738;7.998;2023-05-07T13:59:44;19.40;99.90
1453;DHT22;720;47.738;7.998;2023-05-07T14:02:09;19.60;99.90
1453;DHT22;720;47.738;7.998;2023-05-07T14:04:36;19.80;99.90
1453;DHT22;720;47.738;7.998;2023-05-07T14:07:02;20.00;99.90
1453;DHT22;720;47.738;7.998;2023-05-07T14:09:28;20.10;99.70
1453;DHT22;720;47.738;7.998;2023-05-07T14:11:54;20.10;98.00
1453;DHT22;720;47.738;7.998;2023-05-07T14:14:19;20.10;98.90
1453;DHT22;720;47.738;7.998;2023-05-07T14:16:45;20.00;98.70
1453;DHT22;720;47.738;7.998;2023-05-07T14:19:13;19.90;98.70
1453;DHT22;720;47.738;7.998;2023-05-07T14:21:39;19.90;99.20
1453;DHT22;720;47.738;7.998;2023-05-07T14:24:07;19.90;99.90
1453;DHT22;720;47.738;7.998;2023-05-07T14:26:34;20.20;99.60
1453;DHT22;720;47.738;7.998;2023-05-07T14:29:00;20.30;97.40
1453;DHT22;720;47.738;7.998;2023-05-07T14:31:26;20.60;97.50
1453;DHT22;720;47.738;7.998;2023-05-07T14:33:51;20.80;97.10
1453;DHT22;720;47.738;7.998;2023-05-07T14:36:18;20.90;99.00
1453;DHT22;720;47.738;7.998;2023-05-07T14:38:48;20.90;98.50
1453;DHT22;720;47.738;7.998;2023-05-07T14:41:14;20.80;95.30
1453;DHT22;720;47.738;7.998;2023-05-07T14:43:40;20.80;96.30
1453;DHT22;720;47.738;7.998;2023-05-07T14:46:05;20.70;95.90
1453;DHT22;720;47.738;7.998;2023-05-07T14:48:31;20.60;95.80
1453;DHT22;720;47.738;7.998;2023-05-07T14:50:57;20.50;96.70
1453;DHT22;720;47.738;7.998;2023-05-07T14:53:22;20.30;97.60
1453;DHT22;720;47.738;7.998;2023-05-07T14:55:48;20.20;97.20
1453;DHT22;720;47.738;7.998;2023-05-07T14:58:14;20.10;96.40
1453;DHT22;720;47.738;7.998;2023-05-07T15:00:40;19.90;97.50
1453;DHT22;720;47.738;7.998;2023-05-07T15:03:08;19.80;97.50
1453;DHT22;720;47.738;7.998;2023-05-07T15:05:34;19.90;97.50
1453;DHT22;720;47.738;7.998;2023-05-07T15:08:00;19.80;97.20
1453;DHT22;720;47.738;7.998;2023-05-07T15:10:26;19.80;98.80
1453;DHT22;720;47.738;7.998;2023-05-07T15:12:51;19.90;98.40
1453;DHT22;720;47.738;7.998;2023-05-07T15:15:17;19.70;99.90
1453;DHT22;720;47.738;7.998;2023-05-07T15:17:43;19.90;98.40
1453;DHT22;720;47.738;7.998;2023-05-07T15:20:08;19.80;98.30
1453;DHT22;720;47.738;7.998;2023-05-07T15:22:35;19.70;97.80
1453;DHT22;720;47.738;7.998;2023-05-07T15:25:03;19.60;98.20
1453;DHT22;720;47.738;7.998;2023-05-07T15:27:29;19.60;98.60
1453;DHT22;720;47.738;7.998;2023-05-07T15:29:56;19.50;98.60
1453;DHT22;720;47.738;7.998;2023-05-07T15:32:22;19.50;98.80
1453;DHT22;720;47.738;7.998;2023-05-07T15:34:48;19.50;98.80
1453;DHT22;720;47.738;7.998;2023-05-07T15:37:13;19.30;98.90
1453;DHT22;720;47.738;7.998;2023-05-07T15:39:39;19.20;99.50
1453;DHT22;720;47.738;7.998;2023-05-07T15:42:05;19.10;99.70
1453;DHT22;720;47.738;7.998;2023-05-07T15:44:30;19.10;99.90
1453;DHT22;720;47.738;7.998;2023-05-07T15:46:58;19.10;99.90
1453;DHT22;720;47.738;7.998;2023-05-07T15:49:24;19.10;99.90
1453;DHT22;720;47.738;7.998;2023-05-07T15:51:50;19.00;99.90
1453;DHT22;720;47.738;7.998;2023-05-07T15:54:16;19.00;99.90
1453;DHT22;720;47.738;7.998;2023-05-07T15:56:45;19.00;99.90
1453;DHT22;720;47.738;7.998;2023-05-07T15:59:11;18.90;99.90
1453;DHT22;720;47.738;7.998;2023-05-07T16:01:37;18.70;99.90
1453;DHT22;720;47.738;7.998;2023-05-07T16:04:03;18.60;99.70
1453;DHT22;720;47.738;7.998;2023-05-07T16:06:29;18.50;99.90
1453;DHT22;720;47.738;7.998;2023-05-07T16:08:55;18.50;99.90
1453;DHT22;720;47.738;7.998;2023-05-07T16:11:21;18.50;99.90
1453;DHT22;720;47.738;7.998;2023-05-07T16:13:47;18.60;99.90
1453;DHT22;720;47.738;7.998;2023-05-07T16:16:12;18.50;99.90
1453;DHT22;720;47.738;7.998;2023-05-07T16:18:38;18.30;99.90
1453;DHT22;720;47.738;7.998;2023-05-07T16:21:05;18.20;99.90